createdAt,value
2022-10-24T00:00:46.284Z,9.07
2022-10-24T00:03:20.125Z,9.38
2022-10-24T00:09:17.318Z,8.18
2022-10-24T00:11:54.525Z,8.40
2022-10-24T00:14:26.765Z,7.63
2022-10-24T00:17:12.016Z,8.10
2022-10-24T00:20:14.374Z,8.43
2022-10-24T00:22:48.127Z,7.93
2022-10-24T00:25:22.484Z,8.07
2022-10-24T00:32:22.194Z,7.03
2022-10-24T00:35:02.474Z,7.35
2022-10-24T00:37:32.545Z,7.13
2022-10-24T00:40:05.554Z,7.15
2022-10-24T00:42:35.114Z,7.30
2022-10-24T00:45:44.936Z,7.10
2022-10-24T00:48:26.964Z,7.35
2022-10-24T00:51:03.445Z,6.90
2022-10-24T00:53:37.515Z,6.38
2022-10-24T00:56:07.724Z,6.45
2022-10-24T00:58:41.074Z,6.55
2022-10-24T01:01:26.941Z,6.95
2022-10-24T01:03:56.594Z,6.50
2022-10-24T01:07:41.544Z,6.40
2022-10-24T01:10:46.624Z,6.28
2022-10-24T01:17:21.954Z,5.72
2022-10-24T01:23:23.385Z,6.15
2022-10-24T01:26:11.306Z,6.40
2022-10-24T01:29:00.833Z,5.93
2022-10-24T01:31:43.024Z,5.88
2022-10-24T01:34:25.364Z,6.18
2022-10-24T01:37:01.345Z,5.63
2022-10-24T01:39:41.336Z,6.13
2022-10-24T01:42:17.834Z,5.30
2022-10-24T01:44:52.214Z,5.78
2022-10-24T01:47:40.834Z,5.22
2022-10-24T01:53:16.849Z,5.60
2022-10-24T01:55:47.284Z,5.22
2022-10-24T01:58:15.935Z,5.20
2022-10-24T02:00:49.225Z,4.65
2022-10-24T02:03:45.654Z,5.55
2022-10-24T02:11:59.215Z,4.70
2022-10-24T02:14:36.608Z,4.95
2022-10-24T02:17:19.114Z,5.05
2022-10-24T02:19:55.744Z,4.93
2022-10-24T02:22:35.646Z,5.00
2022-10-24T02:25:12.655Z,4.90
2022-10-24T02:27:54.284Z,5.47
2022-10-24T02:30:39.814Z,4.50
2022-10-24T02:33:16.434Z,4.68
2022-10-24T02:36:02.384Z,5.15
2022-10-24T02:38:59.034Z,4.95
2022-10-24T02:41:37.606Z,4.60
2022-10-24T02:44:23.464Z,4.45
2022-10-24T02:47:01.785Z,4.88
2022-10-24T02:49:39.013Z,4.72
2022-10-24T02:52:12.198Z,4.78
2022-10-24T02:54:41.916Z,4.93
2022-10-24T02:57:27.113Z,4.30
2022-10-24T03:02:46.247Z,4.22
2022-10-24T03:05:28.174Z,4.22
2022-10-24T03:08:10.444Z,4.20
2022-10-24T03:10:39.004Z,3.90
2022-10-24T03:13:10.558Z,3.83
2022-10-24T03:15:40.113Z,4.45
2022-10-24T03:18:11.754Z,4.15
2022-10-24T03:20:45.654Z,3.95
2022-10-24T03:23:16.658Z,4.10
2022-10-24T03:25:50.413Z,4.00
2022-10-24T03:28:20.003Z,4.07
2022-10-24T03:30:48.524Z,4.10
2022-10-24T03:33:17.403Z,3.83
2022-10-24T03:35:45.974Z,3.67
2022-10-24T03:38:15.944Z,3.80
2022-10-24T03:43:18.016Z,3.75
2022-10-24T03:45:52.123Z,3.60
2022-10-24T03:48:29.733Z,3.70
2022-10-24T03:51:27.237Z,3.78
2022-10-24T03:54:49.245Z,3.80
2022-10-24T04:00:05.344Z,3.38
2022-10-24T04:02:57.263Z,3.40
2022-10-24T04:06:00.836Z,3.70
2022-10-24T04:08:35.554Z,4.28
2022-10-24T04:11:12.316Z,3.53
2022-10-24T04:16:38.975Z,3.95
2022-10-24T04:19:28.814Z,3.40
2022-10-24T04:21:58.754Z,3.35
2022-10-24T04:24:38.565Z,3.55
2022-10-24T04:27:19.274Z,3.17
2022-10-24T04:29:50.386Z,3.40
2022-10-24T04:32:28.004Z,3.67
2022-10-24T04:35:07.035Z,3.35
2022-10-24T04:37:35.735Z,3.63
2022-10-24T04:40:15.964Z,3.20
2022-10-24T04:42:49.315Z,3.25
2022-10-24T04:45:30.049Z,3.47
2022-10-24T04:47:58.478Z,3.25
2022-10-24T04:50:50.146Z,3.50
2022-10-24T04:53:38.205Z,3.10
2022-10-24T04:56:27.165Z,3.20
2022-10-24T04:59:10.586Z,3.10
2022-10-24T05:01:56.736Z,3.10
2022-10-24T05:04:36.965Z,3.00
2022-10-24T05:07:06.864Z,3.10
2022-10-24T05:09:47.831Z,2.90
2022-10-24T05:12:30.364Z,3.08
2022-10-24T05:15:09.671Z,3.20
2022-10-24T05:17:40.230Z,3.13
2022-10-24T05:20:10.155Z,3.17
2022-10-24T05:22:44.385Z,3.05
2022-10-24T05:25:22.040Z,2.92
2022-10-24T05:27:54.269Z,3.10
2022-10-24T05:30:51.770Z,2.97
2022-10-24T05:33:24.489Z,2.72
2022-10-24T05:35:54.200Z,2.88
2022-10-24T05:41:31.930Z,3.05
2022-10-24T05:44:01.320Z,3.08
2022-10-24T05:46:32.959Z,2.90
2022-10-24T05:49:08.520Z,3.00
2022-10-24T05:51:52.670Z,3.03
2022-10-24T05:54:33.262Z,2.80
2022-10-24T05:57:11.720Z,2.80
2022-10-24T05:59:43.270Z,3.13
2022-10-24T06:02:19.774Z,2.90
2022-10-24T06:04:50.535Z,2.80
2022-10-24T06:07:25.139Z,2.75
2022-10-24T06:09:54.680Z,2.53
2022-10-24T06:12:25.839Z,2.70
2022-10-24T06:14:58.802Z,2.78
2022-10-24T06:17:32.701Z,2.70
2022-10-24T06:20:01.849Z,3.42
2022-10-24T06:22:30.659Z,4.75
2022-10-24T06:25:10.301Z,4.93
2022-10-24T06:27:52.694Z,4.75
2022-10-24T06:30:21.591Z,5.22
2022-10-24T06:33:05.730Z,6.32
2022-10-24T06:35:35.343Z,4.80
2022-10-24T06:38:05.030Z,4.43
2022-10-24T06:40:35.981Z,4.57
2022-10-24T06:43:14.292Z,3.80
2022-10-24T06:45:50.367Z,4.80
2022-10-24T06:48:47.961Z,4.43
2022-10-24T06:51:42.820Z,3.95
2022-10-24T06:54:20.149Z,3.75
2022-10-24T06:56:57.220Z,4.00
2022-10-24T06:59:59.180Z,4.20
2022-10-24T07:02:29.390Z,4.43
2022-10-24T07:05:18.258Z,5.15
2022-10-24T07:08:06.802Z,4.32
2022-10-24T07:10:57.080Z,4.07
2022-10-24T07:13:54.248Z,5.20
2022-10-24T07:16:31.015Z,5.40
2022-10-24T07:19:17.270Z,4.70
2022-10-24T07:22:04.982Z,4.50
2022-10-24T07:24:50.431Z,5.20
2022-10-24T07:27:45.290Z,4.25
2022-10-24T07:30:40.490Z,4.93
2022-10-24T07:33:09.549Z,4.22
2022-10-24T07:35:57.550Z,4.45
2022-10-24T07:38:28.614Z,4.32
2022-10-24T07:40:57.299Z,4.47
2022-10-24T07:43:26.590Z,4.50
2022-10-24T07:45:55.443Z,4.32
2022-10-24T07:48:24.160Z,4.10
2022-10-24T07:50:52.851Z,3.88
2022-10-24T07:53:21.749Z,3.90
2022-10-24T07:55:51.770Z,4.20
2022-10-24T07:58:20.390Z,3.92
2022-10-24T08:00:49.244Z,4.35
2022-10-24T08:03:17.899Z,3.90
2022-10-24T08:05:46.682Z,4.18
2022-10-24T08:08:37.148Z,3.45
2022-10-24T08:11:10.852Z,4.07
2022-10-24T08:13:40.090Z,3.83
2022-10-24T08:16:11.080Z,3.75
2022-10-24T08:18:40.248Z,4.03
2022-10-24T08:21:11.251Z,3.30
2022-10-24T08:23:42.460Z,3.75
2022-10-24T08:26:18.470Z,3.28
2022-10-24T08:28:47.623Z,3.50
2022-10-24T08:31:19.943Z,3.30
2022-10-24T08:33:49.579Z,3.67
2022-10-24T08:36:23.163Z,3.13
2022-10-24T08:38:51.750Z,3.13
2022-10-24T08:41:30.770Z,3.08
2022-10-24T08:44:03.720Z,3.05
2022-10-24T08:46:49.270Z,3.03
2022-10-24T08:49:28.172Z,3.08
2022-10-24T08:52:00.780Z,3.15
2022-10-24T08:54:34.481Z,3.15
2022-10-24T08:57:05.021Z,3.22
2022-10-24T08:59:37.761Z,3.20
2022-10-24T09:02:17.332Z,3.20
2022-10-24T09:04:52.600Z,2.97
2022-10-24T09:09:58.970Z,2.90
2022-10-24T09:15:00.881Z,3.05
2022-10-24T09:17:33.741Z,2.75
2022-10-24T09:20:06.552Z,2.80
2022-10-24T09:22:39.496Z,2.78
2022-10-24T09:25:16.970Z,2.97
2022-10-24T09:27:47.393Z,2.83
2022-10-24T09:30:19.570Z,3.45
2022-10-24T09:32:48.871Z,2.65
2022-10-24T09:35:20.802Z,2.60
2022-10-24T09:37:55.462Z,2.55
2022-10-24T09:40:26.391Z,2.80
2022-10-24T09:43:00.391Z,2.90
2022-10-24T09:45:39.510Z,2.45
2022-10-24T09:48:19.299Z,2.50
2022-10-24T09:50:50.312Z,2.53
2022-10-24T09:53:28.451Z,2.78
2022-10-24T09:56:00.290Z,2.88
2022-10-24T09:58:34.182Z,3.10
2022-10-24T10:01:06.355Z,3.22
2022-10-24T10:03:36.243Z,3.55
2022-10-24T10:06:16.390Z,3.72
2022-10-24T10:08:51.899Z,3.30
2022-10-24T10:11:31.646Z,2.80
2022-10-24T10:14:04.809Z,2.72
2022-10-24T10:16:37.450Z,2.80
2022-10-24T10:19:15.010Z,3.08
2022-10-24T10:22:02.192Z,2.92
2022-10-24T10:24:40.200Z,2.53
2022-10-24T10:27:32.417Z,2.38
2022-10-24T10:30:19.564Z,2.70
2022-10-24T10:33:07.179Z,2.70
2022-10-24T10:35:44.330Z,2.40
2022-10-24T10:38:37.401Z,2.97
2022-10-24T10:41:17.483Z,2.40
2022-10-24T10:43:55.030Z,2.50
2022-10-24T10:46:34.110Z,2.35
2022-10-24T10:49:19.157Z,2.28
2022-10-24T10:51:52.890Z,2.20
2022-10-24T10:54:38.481Z,2.70
2022-10-24T10:57:13.210Z,2.13
2022-10-24T10:59:53.605Z,2.33
2022-10-24T11:02:53.179Z,2.78
2022-10-24T11:05:34.320Z,2.40
2022-10-24T11:08:14.789Z,2.28
2022-10-24T11:10:53.329Z,2.70
2022-10-24T11:13:27.669Z,2.50
2022-10-24T11:16:00.781Z,2.58
2022-10-24T11:18:36.140Z,2.35
2022-10-24T11:21:08.390Z,2.20
2022-10-24T11:26:18.939Z,2.10
2022-10-24T11:28:55.420Z,2.03
2022-10-24T11:31:27.891Z,1.80
2022-10-24T11:34:04.830Z,2.25
2022-10-24T11:36:41.529Z,1.92
2022-10-24T11:39:18.210Z,1.95
2022-10-24T11:41:51.850Z,2.00
2022-10-24T11:44:32.770Z,2.10
2022-10-24T11:47:12.150Z,1.90
2022-10-24T11:49:47.160Z,1.80
2022-10-24T11:52:23.660Z,1.90
2022-10-24T11:54:57.951Z,1.80
2022-10-24T11:57:30.162Z,1.67
2022-10-24T12:00:00.155Z,2.00
2022-10-24T12:03:13.909Z,1.95
2022-10-24T12:06:14.610Z,1.88
2022-10-24T12:09:11.769Z,1.77
2022-10-24T12:12:10.152Z,2.00
2022-10-24T12:15:01.790Z,1.85
2022-10-24T12:17:57.281Z,1.90
2022-10-24T12:20:28.200Z,1.90
2022-10-24T12:23:01.929Z,2.10
2022-10-24T12:25:34.280Z,1.77
2022-10-24T12:28:04.759Z,2.00
2022-10-24T12:30:35.340Z,1.67
2022-10-24T12:33:12.970Z,1.50
2022-10-24T12:35:59.579Z,1.50
2022-10-24T12:39:07.674Z,1.70
2022-10-24T12:41:47.223Z,2.00
2022-10-24T12:44:41.464Z,2.70
2022-10-24T12:47:35.123Z,2.40
2022-10-24T12:50:40.396Z,2.30
2022-10-24T12:53:37.340Z,2.60
2022-10-24T12:56:23.203Z,2.42
2022-10-24T12:59:04.560Z,2.20
2022-10-24T13:01:37.066Z,2.58
2022-10-24T13:04:34.567Z,2.35
2022-10-24T13:07:39.079Z,2.55
2022-10-24T13:10:42.671Z,2.30
2022-10-24T13:13:42.955Z,2.63
2022-10-24T13:16:22.010Z,2.83
2022-10-24T13:19:15.220Z,2.22
2022-10-24T13:21:49.774Z,2.42
2022-10-24T13:24:37.221Z,2.30
2022-10-24T13:27:29.320Z,2.20
2022-10-24T13:30:23.419Z,2.55
2022-10-24T13:33:13.511Z,2.28
2022-10-24T13:35:44.659Z,2.60
2022-10-24T13:38:16.059Z,2.10
2022-10-24T13:40:46.450Z,2.30
2022-10-24T13:43:19.791Z,2.00
2022-10-24T13:45:56.919Z,2.10
2022-10-24T13:48:30.729Z,2.38
2022-10-24T13:51:07.353Z,2.10
2022-10-24T13:53:47.984Z,2.47
2022-10-24T13:56:16.929Z,2.30
2022-10-24T13:58:46.925Z,1.77
2022-10-24T14:01:21.718Z,1.90
2022-10-24T14:03:53.634Z,2.08
2022-10-24T14:06:27.605Z,2.00
2022-10-24T14:09:06.454Z,2.10
2022-10-24T14:11:41.775Z,2.67
2022-10-24T14:14:29.985Z,3.13
2022-10-24T14:17:23.655Z,3.28
2022-10-24T14:19:58.715Z,2.80
2022-10-24T14:22:30.449Z,2.40
2022-10-24T14:24:59.726Z,2.50
2022-10-24T14:27:28.674Z,2.40
2022-10-24T14:30:03.231Z,2.60
2022-10-24T14:32:33.396Z,2.13
2022-10-24T14:35:03.889Z,1.70
2022-10-24T14:37:40.788Z,1.98
2022-10-24T14:40:17.910Z,1.90
2022-10-24T14:42:48.475Z,2.10
2022-10-24T14:45:25.598Z,1.70
2022-10-24T14:47:55.685Z,1.90
2022-10-24T14:50:44.034Z,2.08
2022-10-24T14:53:26.324Z,2.00
2022-10-24T14:55:56.985Z,2.10
2022-10-24T14:58:28.404Z,1.80
2022-10-24T15:00:58.456Z,1.90
2022-10-24T15:03:28.800Z,1.80
2022-10-24T15:06:11.095Z,1.75
2022-10-24T15:11:25.328Z,2.35
2022-10-24T15:14:06.236Z,1.83
2022-10-24T15:16:39.225Z,2.00
2022-10-24T15:19:14.165Z,2.08
2022-10-24T15:21:45.975Z,1.75
2022-10-24T15:24:23.287Z,1.90
2022-10-24T15:26:52.795Z,2.10
2022-10-24T15:29:26.726Z,2.00
2022-10-24T15:31:56.795Z,1.88
2022-10-24T15:34:27.686Z,2.03
2022-10-24T15:36:58.375Z,1.85
2022-10-24T15:39:27.505Z,1.85
2022-10-24T15:41:56.826Z,1.70
2022-10-24T15:44:27.145Z,1.75
2022-10-24T15:46:56.496Z,1.80
2022-10-24T15:49:29.424Z,1.77
2022-10-24T15:52:00.947Z,1.60
2022-10-24T15:54:30.105Z,1.50
2022-10-24T15:57:02.880Z,1.80
2022-10-24T15:59:34.416Z,1.52
2022-10-24T16:02:03.942Z,1.80
2022-10-24T16:04:34.934Z,1.73
2022-10-24T16:07:06.181Z,1.70
2022-10-24T16:09:35.106Z,1.90
2022-10-24T16:12:05.605Z,1.50
2022-10-24T16:14:35.035Z,1.60
2022-10-24T16:17:04.796Z,1.80
2022-10-24T16:19:35.594Z,1.75
2022-10-24T16:22:07.895Z,1.73
2022-10-24T16:24:36.984Z,1.70
2022-10-24T16:27:05.995Z,1.60
2022-10-24T16:29:34.726Z,2.08
2022-10-24T16:32:04.504Z,1.50
2022-10-24T16:34:34.406Z,1.27
2022-10-24T16:37:05.032Z,1.80
2022-10-24T16:39:34.434Z,1.80
2022-10-24T16:42:05.670Z,1.58
2022-10-24T16:44:37.244Z,1.58
2022-10-24T16:47:06.265Z,1.85
2022-10-24T16:49:40.625Z,1.60
2022-10-24T16:52:12.146Z,1.50
2022-10-24T16:54:41.575Z,1.42
2022-10-24T16:57:10.244Z,1.65
2022-10-24T16:59:39.005Z,1.63
2022-10-24T17:02:08.811Z,1.90
2022-10-24T17:04:43.471Z,1.65
2022-10-24T17:07:14.895Z,1.50
2022-10-24T17:09:44.616Z,1.60
2022-10-24T17:12:15.245Z,1.55
2022-10-24T17:14:44.075Z,1.48
2022-10-24T17:17:13.031Z,1.50
2022-10-24T17:19:42.965Z,1.40
2022-10-24T17:22:20.441Z,1.67
2022-10-24T17:24:51.295Z,1.50
2022-10-24T17:27:23.546Z,1.77
2022-10-24T17:29:52.503Z,1.60
2022-10-24T17:32:21.546Z,1.67
2022-10-24T17:34:52.744Z,1.35
2022-10-24T17:37:32.604Z,1.83
2022-10-24T17:40:08.575Z,1.88
2022-10-24T17:42:42.063Z,1.30
2022-10-24T17:45:16.676Z,1.50
2022-10-24T17:47:48.252Z,1.38
2022-10-24T17:50:20.235Z,1.60
2022-10-24T17:52:52.953Z,1.42
2022-10-24T17:58:13.525Z,1.70
2022-10-24T18:00:45.722Z,1.70
2022-10-24T18:03:17.355Z,1.60
2022-10-24T18:05:49.367Z,1.80
2022-10-24T18:08:20.669Z,1.65
2022-10-24T18:10:50.476Z,1.60
2022-10-24T18:13:21.621Z,1.50
2022-10-24T18:15:50.875Z,1.75
2022-10-24T18:18:23.115Z,1.42
2022-10-24T18:20:52.154Z,1.90
2022-10-24T18:23:22.387Z,1.80
2022-10-24T18:25:50.974Z,1.77
2022-10-24T18:28:19.535Z,2.10
2022-10-24T18:30:48.065Z,2.70
2022-10-24T18:33:16.674Z,3.13
2022-10-24T18:35:45.311Z,2.92
2022-10-24T18:38:13.855Z,2.70
2022-10-24T18:40:44.524Z,2.90
2022-10-24T18:43:14.324Z,2.88
2022-10-24T18:45:43.794Z,2.50
2022-10-24T18:48:13.355Z,2.70
2022-10-24T18:50:42.156Z,2.70
2022-10-24T18:53:27.167Z,2.58
2022-10-24T18:56:03.794Z,2.40
2022-10-24T18:58:32.977Z,2.50
2022-10-24T19:01:02.421Z,2.50
2022-10-24T19:03:37.410Z,2.50
2022-10-24T19:06:19.024Z,2.80
2022-10-24T19:08:48.328Z,2.40
2022-10-24T19:11:19.944Z,2.22
2022-10-24T19:13:48.774Z,2.55
2022-10-24T19:16:22.165Z,2.40
2022-10-24T19:18:55.631Z,2.22
2022-10-24T19:21:32.121Z,2.40
2022-10-24T19:24:02.440Z,2.17
2022-10-24T19:26:32.801Z,2.17
2022-10-24T19:29:04.868Z,2.10
2022-10-24T19:31:35.253Z,1.98
2022-10-24T19:34:18.220Z,2.15
2022-10-24T19:36:48.869Z,2.00
2022-10-24T19:39:17.588Z,2.20
2022-10-24T19:41:47.605Z,2.13
2022-10-24T19:44:16.735Z,2.20
2022-10-24T19:46:45.464Z,2.10
2022-10-24T19:49:16.501Z,2.10
2022-10-24T19:51:45.572Z,2.20
2022-10-24T19:54:14.525Z,2.50
2022-10-24T19:56:43.285Z,2.03
2022-10-24T19:59:13.530Z,1.85
2022-10-24T20:01:43.883Z,2.00
2022-10-24T20:04:13.415Z,2.20
2022-10-24T20:06:42.685Z,2.20
2022-10-24T20:09:12.995Z,2.20
2022-10-24T20:11:46.925Z,1.80
2022-10-24T20:14:17.816Z,2.00
2022-10-24T20:16:49.318Z,2.00
2022-10-24T20:19:17.995Z,2.03
2022-10-24T20:21:47.274Z,1.90
2022-10-24T20:24:15.944Z,1.90
2022-10-24T20:26:44.944Z,1.80
2022-10-24T20:29:15.519Z,2.00
2022-10-24T20:31:50.295Z,1.95
2022-10-24T20:34:19.236Z,1.90
2022-10-24T20:36:50.619Z,1.90
2022-10-24T20:39:21.423Z,2.00
2022-10-24T20:41:53.387Z,2.35
2022-10-24T20:44:23.182Z,2.20
2022-10-24T20:46:57.006Z,1.83
2022-10-24T20:49:26.055Z,1.70
2022-10-24T20:51:55.446Z,2.25
2022-10-24T20:54:24.720Z,2.03
2022-10-24T20:56:55.600Z,2.00
2022-10-24T20:59:25.087Z,1.85
2022-10-24T21:01:55.601Z,1.80
2022-10-24T21:04:24.964Z,2.00
2022-10-24T21:06:54.047Z,1.60
2022-10-24T21:09:22.627Z,1.85
2022-10-24T21:11:51.520Z,1.85
2022-10-24T21:14:21.017Z,1.75
2022-10-24T21:16:49.903Z,1.80
2022-10-24T21:19:21.304Z,2.20
2022-10-24T21:21:50.301Z,1.80
2022-10-24T21:24:26.389Z,1.70
2022-10-24T21:26:57.920Z,1.90
2022-10-24T21:29:34.535Z,1.95
2022-10-24T21:32:05.706Z,1.85
2022-10-24T21:34:36.010Z,1.95
2022-10-24T21:37:05.629Z,1.70
2022-10-24T21:39:34.235Z,1.70
2022-10-24T21:42:03.319Z,1.90
2022-10-24T21:44:31.964Z,1.77
2022-10-24T21:47:00.647Z,1.58
2022-10-24T21:49:29.623Z,1.63
2022-10-24T21:52:00.610Z,1.80
2022-10-24T21:54:30.344Z,1.80
2022-10-24T21:56:58.845Z,1.80
2022-10-24T21:59:27.325Z,2.05
2022-10-24T22:01:57.027Z,1.65
2022-10-24T22:04:26.014Z,1.90
2022-10-24T22:06:55.124Z,1.80
2022-10-24T22:09:25.275Z,1.85
2022-10-24T22:11:58.058Z,1.80
2022-10-24T22:14:27.438Z,1.63
2022-10-24T22:16:56.032Z,1.77
2022-10-24T22:19:24.695Z,1.83
2022-10-24T22:21:53.424Z,1.52
2022-10-24T22:24:24.314Z,2.00
2022-10-24T22:26:54.804Z,1.73
2022-10-24T22:29:25.375Z,2.28
2022-10-24T22:31:55.284Z,1.75
2022-10-24T22:34:26.585Z,2.10
2022-10-24T22:37:05.774Z,1.83
2022-10-24T22:39:35.230Z,1.85
2022-10-24T22:42:07.417Z,1.70
2022-10-24T22:44:37.005Z,1.73
2022-10-24T22:47:37.995Z,1.83
2022-10-24T22:50:21.885Z,1.75
2022-10-24T22:52:50.976Z,1.80
2022-10-24T22:55:26.525Z,1.70
2022-10-24T23:00:26.214Z,1.75
2022-10-24T23:03:03.394Z,1.83
2022-10-24T23:05:46.252Z,1.80
2022-10-24T23:08:27.744Z,1.55
2022-10-24T23:10:59.364Z,1.50
2022-10-24T23:13:38.065Z,1.60
2022-10-24T23:16:24.145Z,1.80
2022-10-24T23:21:33.874Z,1.60
2022-10-24T23:24:03.484Z,1.60
2022-10-24T23:26:40.456Z,1.70
2022-10-24T23:29:21.656Z,1.70
2022-10-24T23:31:51.934Z,1.70
2022-10-24T23:34:25.486Z,1.90
2022-10-24T23:37:00.864Z,1.52
2022-10-24T23:39:38.035Z,1.80
2022-10-24T23:42:24.424Z,1.80
2022-10-24T23:44:58.075Z,1.85
2022-10-24T23:47:58.234Z,1.50
2022-10-24T23:50:41.195Z,1.83
2022-10-24T23:53:43.437Z,1.70
2022-10-24T23:56:37.625Z,1.90
2022-10-24T23:59:10.404Z,2.00
